Time;durP1;ratioP1;P1;durP2;ratioP2;P2;SDS_P1;SDS_P2;PMS_P1;PMS_P2;Temp;Humidity;BMP_temperature;BMP_pressure;BME280_temperature;BME280_humidity;BME280_pressure;Samples;Min_cycle;Max_cycle;Signal;HPM_P1;HPM_P2
2021/08/26 00:00:45;;;;;;;6.88;4.43;;;;;;;;;;5069973;28;20086;-66
2021/08/26 00:05:55;;;;;;;7.20;4.43;;;;;;;;;;5067164;28;20032;-65
2021/08/26 00:08:22;;;;;;;8.27;4.32;;;;;;;;;;5052954;28;20025;-66
2021/08/26 00:10:49;;;;;;;6.97;5.00;;;;;;;;;;5059564;28;20043;-65
2021/08/26 00:13:15;;;;;;;8.48;4.78;;;;;;;;;;5071239;28;20361;-67
2021/08/26 00:15:46;;;;;;;6.22;4.38;;;;;;;;;;5071020;28;20131;-66
2021/08/26 00:18:11;;;;;;;7.05;4.45;;;;;;;;;;5073728;28;20517;-67
2021/08/26 00:20:37;;;;;;;5.70;4.55;;;;;;;;;;5072163;28;20107;-67
2021/08/26 00:23:03;;;;;;;10.10;5.75;;;;;;;;;;5073393;28;20432;-66
2021/08/26 00:25:28;;;;;;;9.25;5.78;;;;;;;;;;5072983;28;20682;-66
2021/08/26 00:27:53;;;;;;;6.47;5.78;;;;;;;;;;5072397;28;20393;-67
2021/08/26 00:30:20;;;;;;;7.63;5.55;;;;;;;;;;5072026;28;20035;-65
2021/08/26 00:32:46;;;;;;;9.93;6.55;;;;;;;;;;5073367;28;20405;-65
2021/08/26 00:35:11;;;;;;;13.00;7.07;;;;;;;;;;5074781;28;20060;-67
2021/08/26 00:37:36;;;;;;;9.45;6.97;;;;;;;;;;5071784;28;20425;-65
2021/08/26 00:40:02;;;;;;;9.10;7.10;;;;;;;;;;5073352;28;20377;-66
2021/08/26 00:42:28;;;;;;;7.70;6.80;;;;;;;;;;5073057;28;20024;-65
2021/08/26 00:44:53;;;;;;;8.95;7.13;;;;;;;;;;5072255;28;20024;-67
2021/08/26 00:47:22;;;;;;;8.32;6.53;;;;;;;;;;5069456;28;20051;-67
2021/08/26 00:49:51;;;;;;;10.30;6.70;;;;;;;;;;5075678;28;20016;-66
2021/08/26 00:52:16;;;;;;;7.10;6.38;;;;;;;;;;5072877;28;20032;-67
2021/08/26 00:54:42;;;;;;;9.82;7.07;;;;;;;;;;5072497;28;20028;-66
2021/08/26 00:57:07;;;;;;;8.73;7.55;;;;;;;;;;4364631;28;10000687;-67
2021/08/26 00:59:33;;;;;;;10.60;8.32;;;;;;;;;;5049240;28;20657;-67
2021/08/26 01:02:18;;;;;;;13.75;8.20;;;;;;;;;;5050158;28;20027;-65
2021/08/26 01:04:56;;;;;;;8.85;7.68;;;;;;;;;;5051102;28;20438;-65
2021/08/26 01:07:21;;;;;;;;;;;;;;;;;;5063196;28;20052;-65
2021/08/26 01:09:50;;;;;;;11.23;8.83;;;;;;;;;;5071093;28;19966;-67
2021/08/26 01:12:21;;;;;;;13.80;8.80;;;;;;;;;;5073597;28;20035;-66
2021/08/26 01:14:47;;;;;;;11.20;8.25;;;;;;;;;;5072263;28;20378;-65
2021/08/26 01:17:22;;;;;;;9.93;8.50;;;;;;;;;;5070344;28;20036;-66
2021/08/26 01:19:48;;;;;;;10.52;8.38;;;;;;;;;;5072464;28;20466;-66
2021/08/26 01:22:18;;;;;;;10.30;8.02;;;;;;;;;;5070340;28;20545;-66
2021/08/26 01:24:52;;;;;;;9.93;7.97;;;;;;;;;;5072123;28;20088;-66
2021/08/26 01:27:18;;;;;;;10.75;7.85;;;;;;;;;;5070426;28;20433;-66
2021/08/26 01:29:44;;;;;;;8.60;7.28;;;;;;;;;;5073844;28;20058;-65
2021/08/26 01:32:10;;;;;;;8.80;6.97;;;;;;;;;;5070775;28;20025;-66
2021/08/26 01:34:35;;;;;;;12.85;7.13;;;;;;;;;;5071136;28;20700;-67
2021/08/26 01:37:03;;;;;;;8.57;6.78;;;;;;;;;;5071790;28;20021;-66
2021/08/26 01:39:28;;;;;;;8.05;6.40;;;;;;;;;;5070137;28;20504;-65
2021/08/26 01:41:55;;;;;;;7.93;6.13;;;;;;;;;;5072039;28;20033;-66
2021/08/26 01:44:30;;;;;;;6.95;6.18;;;;;;;;;;5072154;28;20016;-65
2021/08/26 01:46:56;;;;;;;8.18;6.28;;;;;;;;;;5072548;28;20036;-66
2021/08/26 01:49:22;;;;;;;9.10;5.75;;;;;;;;;;5070105;28;20091;-65
2021/08/26 01:51:48;;;;;;;7.10;6.03;;;;;;;;;;5071804;28;20028;-67
2021/08/26 01:54:13;;;;;;;7.93;6.10;;;;;;;;;;5071353;28;20063;-64
2021/08/26 01:56:38;;;;;;;6.88;6.05;;;;;;;;;;5070500;28;20519;-65
2021/08/26 01:59:04;;;;;;;6.57;5.70;;;;;;;;;;5073077;28;20033;-66
2021/08/26 02:01:29;;;;;;;8.18;5.97;;;;;;;;;;5070450;28;20032;-66
2021/08/26 02:03:55;;;;;;;7.00;5.15;;;;;;;;;;5070837;28;20039;-65
2021/08/26 02:06:21;;;;;;;6.72;5.57;;;;;;;;;;5069633;28;20390;-66
2021/08/26 02:08:46;;;;;;;6.97;5.38;;;;;;;;;;5069501;28;20477;-66
2021/08/26 02:11:12;;;;;;;8.25;5.20;;;;;;;;;;5070534;28;20104;-67
2021/08/26 02:13:37;;;;;;;8.15;5.78;;;;;;;;;;5070735;28;20017;-65
2021/08/26 02:16:03;;;;;;;7.68;6.18;;;;;;;;;;5071156;28;20036;-65
2021/08/26 02:18:28;;;;;;;6.88;5.25;;;;;;;;;;5069426;28;20422;-66
2021/08/26 02:20:54;;;;;;;7.40;5.93;;;;;;;;;;5071406;28;20082;-66
2021/08/26 02:23:19;;;;;;;9.55;5.88;;;;;;;;;;5071365;28;20063;-65
2021/08/26 02:25:45;;;;;;;8.20;5.57;;;;;;;;;;5070238;28;20099;-65
2021/08/26 02:28:10;;;;;;;6.60;4.85;;;;;;;;;;5071600;28;20028;-66
2021/08/26 02:30:35;;;;;;;9.07;5.18;;;;;;;;;;5069415;28;20034;-65
2021/08/26 02:33:01;;;;;;;8.02;5.72;;;;;;;;;;5070604;28;20031;-66
2021/08/26 02:35:26;;;;;;;9.93;5.20;;;;;;;;;;5071975;28;20436;-65
2021/08/26 02:37:51;;;;;;;7.25;4.90;;;;;;;;;;5070455;28;20039;-65
2021/08/26 02:40:17;;;;;;;10.27;5.10;;;;;;;;;;5069929;28;20035;-65
2021/08/26 02:42:42;;;;;;;6.85;4.78;;;;;;;;;;5074822;28;20399;-66
2021/08/26 02:45:08;;;;;;;7.15;4.60;;;;;;;;;;5076116;28;20465;-66
2021/08/26 02:47:33;;;;;;;7.43;4.38;;;;;;;;;;5074991;28;20028;-66
2021/08/26 02:49:59;;;;;;;10.40;5.18;;;;;;;;;;5072572;28;20134;-67
2021/08/26 02:52:24;;;;;;;6.10;4.63;;;;;;;;;;5074334;28;20115;-66
2021/08/26 02:54:49;;;;;;;5.65;4.53;;;;;;;;;;5073952;28;20519;-65
2021/08/26 02:57:15;;;;;;;5.70;4.47;;;;;;;;;;5074983;28;20033;-66
2021/08/26 02:59:40;;;;;;;5.43;4.30;;;;;;;;;;5075290;28;20048;-66
2021/08/26 03:02:05;;;;;;;6.18;4.40;;;;;;;;;;5074145;28;20020;-66
2021/08/26 03:04:31;;;;;;;7.10;4.80;;;;;;;;;;5074837;28;20526;-65
2021/08/26 03:06:56;;;;;;;5.70;4.10;;;;;;;;;;5072746;28;20044;-66
2021/08/26 03:09:21;;;;;;;4.95;3.72;;;;;;;;;;5074523;28;20063;-64
2021/08/26 03:11:47;;;;;;;7.10;4.40;;;;;;;;;;5073368;28;20024;-66
2021/08/26 03:14:12;;;;;;;4.63;3.97;;;;;;;;;;5072781;28;20039;-67
2021/08/26 03:16:38;;;;;;;5.13;3.78;;;;;;;;;;5072532;28;20162;-66
2021/08/26 03:19:03;;;;;;;6.03;4.00;;;;;;;;;;5075657;28;20079;-65
2021/08/26 03:21:28;;;;;;;6.25;3.70;;;;;;;;;;5072887;28;20032;-65
2021/08/26 03:23:54;;;;;;;5.45;3.88;;;;;;;;;;5073619;28;20020;-65
2021/08/26 03:26:19;;;;;;;5.35;3.92;;;;;;;;;;5073534;28;20024;-66
2021/08/26 03:28:44;;;;;;;4.38;3.60;;;;;;;;;;5074283;28;20033;-66
2021/08/26 03:31:11;;;;;;;7.18;3.80;;;;;;;;;;5074219;28;20024;-65
2021/08/26 03:33:36;;;;;;;4.10;2.88;;;;;;;;;;5073095;28;20070;-66
2021/08/26 03:36:02;;;;;;;4.72;3.45;;;;;;;;;;5076223;28;20649;-66
2021/08/26 03:38:27;;;;;;;5.38;3.67;;;;;;;;;;5091559;28;20042;-65
2021/08/26 03:40:52;;;;;;;5.00;3.13;;;;;;;;;;5091046;28;20261;-66
2021/08/26 03:43:17;;;;;;;3.97;3.10;;;;;;;;;;5092626;28;20130;-66
2021/08/26 03:45:43;;;;;;;4.35;3.33;;;;;;;;;;5088821;28;20131;-66
2021/08/26 03:48:08;;;;;;;4.07;2.45;;;;;;;;;;5093389;28;20019;-66
2021/08/26 03:50:34;;;;;;;3.88;2.90;;;;;;;;;;5091942;28;20028;-65
2021/08/26 03:52:59;;;;;;;3.65;2.50;;;;;;;;;;5091333;28;20473;-66
2021/08/26 03:55:25;;;;;;;3.95;2.55;;;;;;;;;;5091853;28;20791;-66
2021/08/26 03:57:50;;;;;;;3.30;2.28;;;;;;;;;;5092558;28;20444;-66
2021/08/26 04:00:16;;;;;;;3.08;1.90;;;;;;;;;;5092279;28;20055;-66
2021/08/26 04:02:41;;;;;;;2.88;1.92;;;;;;;;;;5092898;28;20448;-66
2021/08/26 04:05:07;;;;;;;2.58;2.00;;;;;;;;;;5088204;28;20047;-64
2021/08/26 04:07:32;;;;;;;4.63;1.80;;;;;;;;;;5072057;28;20016;-65
2021/08/26 04:09:59;;;;;;;1.63;1.52;;;;;;;;;;5072354;28;20028;-67
2021/08/26 04:12:25;;;;;;;5.65;1.85;;;;;;;;;;5072142;28;20056;-67
2021/08/26 04:14:50;;;;;;;6.03;1.97;;;;;;;;;;5071983;28;20033;-65
2021/08/26 04:17:16;;;;;;;2.58;1.70;;;;;;;;;;5071453;28;20641;-65
2021/08/26 04:19:41;;;;;;;3.78;1.67;;;;;;;;;;5072291;28;20028;-66
2021/08/26 04:22:07;;;;;;;2.67;1.58;;;;;;;;;;5072534;28;20028;-66
2021/08/26 04:24:32;;;;;;;1.98;1.45;;;;;;;;;;5072158;28;20035;-65
2021/08/26 04:26:57;;;;;;;3.13;1.52;;;;;;;;;;5072447;28;20047;-67
2021/08/26 04:29:23;;;;;;;3.75;1.80;;;;;;;;;;5071021;28;20119;-66
2021/08/26 04:31:48;;;;;;;3.35;1.50;;;;;;;;;;5073696;28;20117;-67
2021/08/26 04:34:13;;;;;;;1.98;1.40;;;;;;;;;;5034160;28;1071665;-66
2021/08/26 04:36:39;;;;;;;3.08;1.70;;;;;;;;;;5072349;28;20036;-66
2021/08/26 04:39:04;;;;;;;1.90;1.70;;;;;;;;;;5074587;28;20104;-66
2021/08/26 04:41:29;;;;;;;2.20;1.88;;;;;;;;;;5072617;28;20024;-66
2021/08/26 04:43:55;;;;;;;1.92;1.50;;;;;;;;;;5072139;28;20021;-66
2021/08/26 04:46:20;;;;;;;1.77;1.30;;;;;;;;;;5072047;28;20107;-66
2021/08/26 04:48:45;;;;;;;2.60;1.35;;;;;;;;;;5073358;28;20020;-65
2021/08/26 04:51:11;;;;;;;1.80;1.45;;;;;;;;;;5071274;28;20630;-66
2021/08/26 04:53:36;;;;;;;2.78;1.70;;;;;;;;;;5069746;28;20020;-66
2021/08/26 04:56:01;;;;;;;4.07;2.00;;;;;;;;;;5070574;28;20485;-69
2021/08/26 04:58:27;;;;;;;2.40;1.80;;;;;;;;;;5071791;28;20449;-68
2021/08/26 05:00:52;;;;;;;3.20;2.20;;;;;;;;;;5072408;28;20077;-68
2021/08/26 05:03:17;;;;;;;5.05;2.00;;;;;;;;;;5070737;28;20016;-68
2021/08/26 05:05:43;;;;;;;4.30;2.22;;;;;;;;;;5079827;28;20032;-68
2021/08/26 05:08:08;;;;;;;4.55;1.92;;;;;;;;;;5093067;28;20077;-68
2021/08/26 05:10:36;;;;;;;3.08;1.90;;;;;;;;;;5090500;28;20032;-68
2021/08/26 05:13:02;;;;;;;3.85;1.92;;;;;;;;;;5074724;28;20409;-69
2021/08/26 05:15:27;;;;;;;6.20;2.10;;;;;;;;;;5071660;28;20028;-69
2021/08/26 05:17:52;;;;;;;6.22;1.98;;;;;;;;;;5071683;28;20024;-69
2021/08/26 05:20:18;;;;;;;4.63;2.03;;;;;;;;;;5072262;28;20317;-69
2021/08/26 05:22:43;;;;;;;4.28;2.40;;;;;;;;;;5072631;28;20034;-69
2021/08/26 05:25:11;;;;;;;5.60;2.03;;;;;;;;;;5069905;28;20500;-69
2021/08/26 05:27:36;;;;;;;6.28;2.65;;;;;;;;;;5072493;28;20218;-69
2021/08/26 05:30:02;;;;;;;5.35;2.10;;;;;;;;;;5071806;28;20430;-69
2021/08/26 05:32:27;;;;;;;5.55;2.58;;;;;;;;;;5068772;28;20027;-69
2021/08/26 05:34:52;;;;;;;4.07;2.20;;;;;;;;;;5055295;28;20040;-69
2021/08/26 05:37:17;;;;;;;5.53;2.25;;;;;;;;;;5062462;28;20152;-69
2021/08/26 05:39:43;;;;;;;5.00;2.65;;;;;;;;;;5067686;28;20030;-69
2021/08/26 05:42:08;;;;;;;6.75;2.83;;;;;;;;;;5067573;28;20021;-70
2021/08/26 05:44:35;;;;;;;7.15;2.80;;;;;;;;;;5070942;28;20032;-69
2021/08/26 05:47:00;;;;;;;5.10;2.58;;;;;;;;;;5069082;28;20032;-69
2021/08/26 05:49:26;;;;;;;9.88;3.17;;;;;;;;;;5067759;28;20036;-69
2021/08/26 05:51:51;;;;;;;8.98;2.67;;;;;;;;;;5071655;28;20021;-69
2021/08/26 05:54:16;;;;;;;7.55;2.70;;;;;;;;;;5070167;28;20040;-69
2021/08/26 05:56:42;;;;;;;7.07;2.72;;;;;;;;;;5069050;28;20024;-69
2021/08/26 05:59:07;;;;;;;7.15;2.55;;;;;;;;;;5070956;28;20027;-69
2021/08/26 06:01:32;;;;;;;6.85;2.85;;;;;;;;;;5070752;28;20016;-69
2021/08/26 06:03:58;;;;;;;9.15;2.88;;;;;;;;;;5071934;28;20044;-69
2021/08/26 06:06:23;;;;;;;6.82;2.97;;;;;;;;;;5084181;28;20020;-69
2021/08/26 06:08:49;;;;;;;7.25;3.00;;;;;;;;;;5073358;28;20024;-69
2021/08/26 06:11:14;;;;;;;7.65;3.00;;;;;;;;;;5069303;28;20481;-69
2021/08/26 06:13:40;;;;;;;5.97;2.85;;;;;;;;;;5067470;28;20121;-68
2021/08/26 06:16:05;;;;;;;9.85;2.75;;;;;;;;;;5067853;28;20054;-69
2021/08/26 06:18:30;;;;;;;6.20;3.13;;;;;;;;;;5073675;28;20020;-69
2021/08/26 06:20:56;;;;;;;9.20;3.53;;;;;;;;;;5070586;28;20440;-69
2021/08/26 06:23:21;;;;;;;8.32;3.33;;;;;;;;;;4368361;28;10021584;-69
2021/08/26 06:25:47;;;;;;;9.50;3.47;;;;;;;;;;5051311;28;20524;-69
2021/08/26 06:28:12;;;;;;;8.88;3.05;;;;;;;;;;5057436;28;20478;-69
2021/08/26 06:30:37;;;;;;;6.25;3.13;;;;;;;;;;5055519;28;20465;-69
2021/08/26 06:33:04;;;;;;;7.28;3.10;;;;;;;;;;5056451;28;20028;-69
2021/08/26 06:35:29;;;;;;;9.13;3.30;;;;;;;;;;5054718;28;20033;-69
2021/08/26 06:37:55;;;;;;;7.60;3.20;;;;;;;;;;5057992;28;20270;-69
2021/08/26 06:40:21;;;;;;;9.57;3.25;;;;;;;;;;5057777;28;20039;-69
2021/08/26 06:42:46;;;;;;;6.90;3.10;;;;;;;;;;5056353;28;20013;-69
2021/08/26 06:45:11;;;;;;;8.98;3.08;;;;;;;;;;5058862;28;20016;-69
2021/08/26 06:47:37;;;;;;;10.50;3.55;;;;;;;;;;5067925;28;20054;-69
2021/08/26 06:50:03;;;;;;;10.38;2.95;;;;;;;;;;5068172;28;20034;-69
2021/08/26 06:52:29;;;;;;;7.95;3.28;;;;;;;;;;5071326;28;20170;-69
2021/08/26 06:54:54;;;;;;;6.70;3.58;;;;;;;;;;5069412;28;20111;-69
2021/08/26 06:57:19;;;;;;;8.02;2.88;;;;;;;;;;5067606;28;20121;-69
2021/08/26 06:59:45;;;;;;;9.18;3.13;;;;;;;;;;5068637;28;20647;-69
2021/08/26 07:02:11;;;;;;;5.82;2.97;;;;;;;;;;5069599;28;20031;-69
2021/08/26 07:04:36;;;;;;;6.78;3.28;;;;;;;;;;5070174;28;20327;-69
2021/08/26 07:07:01;;;;;;;7.90;3.10;;;;;;;;;;5088550;28;20026;-69
2021/08/26 07:09:27;;;;;;;5.47;2.22;;;;;;;;;;5089522;28;20038;-69
2021/08/26 07:11:52;;;;;;;11.38;2.75;;;;;;;;;;5066211;28;20017;-68
2021/08/26 07:14:18;;;;;;;7.15;2.55;;;;;;;;;;5066411;28;20420;-69
2021/08/26 07:16:43;;;;;;;11.13;2.90;;;;;;;;;;5064609;28;20113;-69
2021/08/26 07:19:08;;;;;;;6.53;2.40;;;;;;;;;;5067018;28;20098;-70
2021/08/26 07:21:34;;;;;;;6.75;2.05;;;;;;;;;;5066496;28;20107;-70
2021/08/26 07:23:59;;;;;;;6.25;2.13;;;;;;;;;;5066644;28;20677;-70
2021/08/26 07:26:24;;;;;;;5.35;2.22;;;;;;;;;;5066439;28;20485;-69
2021/08/26 07:28:52;;;;;;;5.15;2.13;;;;;;;;;;5073108;28;20397;-72
2021/08/26 07:31:17;;;;;;;6.47;2.28;;;;;;;;;;5072273;28;20454;-68
2021/08/26 07:33:43;;;;;;;6.25;2.00;;;;;;;;;;5073742;28;20135;-69
2021/08/26 07:36:08;;;;;;;8.15;1.90;;;;;;;;;;5074271;28;20024;-68
2021/08/26 07:38:33;;;;;;;5.07;2.08;;;;;;;;;;5073543;28;20363;-67
2021/08/26 07:40:59;;;;;;;8.98;2.25;;;;;;;;;;5073158;28;20025;-69
2021/08/26 07:43:25;;;;;;;6.07;2.03;;;;;;;;;;5072073;28;20028;-70
2021/08/26 07:45:54;;;;;;;4.47;1.92;;;;;;;;;;5073041;28;20422;-69
2021/08/26 07:48:19;;;;;;;7.47;2.50;;;;;;;;;;5075156;28;20055;-70
2021/08/26 07:50:45;;;;;;;6.13;1.98;;;;;;;;;;5071487;28;20059;-70
2021/08/26 07:53:10;;;;;;;5.28;2.10;;;;;;;;;;5073574;28;20021;-71
2021/08/26 07:55:36;;;;;;;7.45;2.15;;;;;;;;;;5071968;28;20098;-69
2021/08/26 07:58:03;;;;;;;5.15;1.83;;;;;;;;;;5072078;28;20028;-69
2021/08/26 08:00:28;;;;;;;7.32;1.85;;;;;;;;;;5072194;28;20078;-70
2021/08/26 08:02:54;;;;;;;5.55;1.77;;;;;;;;;;5061773;28;20032;-72
2021/08/26 08:05:19;;;;;;;5.82;1.77;;;;;;;;;;5054678;28;20425;-69
2021/08/26 08:07:45;;;;;;;6.53;1.92;;;;;;;;;;5073119;28;20036;-72
2021/08/26 08:10:12;;;;;;;7.13;1.98;;;;;;;;;;5072018;28;20107;-69
2021/08/26 08:12:37;;;;;;;15.88;4.90;;;;;;;;;;5073615;28;20077;-72
2021/08/26 08:15:03;;;;;;;9.27;2.50;;;;;;;;;;5070778;28;20037;-71
2021/08/26 08:17:28;;;;;;;2.95;1.48;;;;;;;;;;5070672;28;20118;-71
2021/08/26 08:19:54;;;;;;;6.57;1.65;;;;;;;;;;5080235;28;20370;-68
2021/08/26 08:22:19;;;;;;;9.48;2.25;;;;;;;;;;5088987;28;20392;-68
2021/08/26 08:24:44;;;;;;;5.80;1.80;;;;;;;;;;5066710;28;20048;-70
2021/08/26 08:27:09;;;;;;;5.47;1.60;;;;;;;;;;5069845;28;20093;-68
2021/08/26 08:29:35;;;;;;;5.68;1.60;;;;;;;;;;5069689;28;20036;-70
2021/08/26 08:32:00;;;;;;;4.75;1.60;;;;;;;;;;5071616;28;20069;-71
2021/08/26 08:34:26;;;;;;;4.18;1.27;;;;;;;;;;5070954;28;20045;-68
2021/08/26 08:36:51;;;;;;;5.43;1.33;;;;;;;;;;5088208;28;20031;-72
2021/08/26 08:39:16;;;;;;;5.57;1.20;;;;;;;;;;5090367;28;20465;-68
2021/08/26 08:41:44;;;;;;;6.20;1.00;;;;;;;;;;5077833;28;20075;-68
2021/08/26 08:44:24;;;;;;;4.55;1.27;;;;;;;;;;4869812;28;10000879;-68
2021/08/26 08:46:54;;;;;;;7.03;1.30;;;;;;;;;;4712395;28;10000167;-70
2021/08/26 08:49:21;;;;;;;4.50;1.30;;;;;;;;;;5057868;28;20066;-70
2021/08/26 08:51:49;;;;;;;2.88;0.90;;;;;;;;;;5055788;28;20028;-67
2021/08/26 08:54:15;;;;;;;5.43;1.23;;;;;;;;;;5057503;28;20036;-70
2021/08/26 08:56:41;;;;;;;3.60;1.10;;;;;;;;;;5057021;28;20033;-71
2021/08/26 08:59:06;;;;;;;5.00;1.10;;;;;;;;;;5055695;28;20102;-67
2021/08/26 09:01:31;;;;;;;5.68;1.08;;;;;;;;;;5059050;28;20471;-70
2021/08/26 09:03:57;;;;;;;4.18;0.95;;;;;;;;;;5056653;28;20032;-69
2021/08/26 09:06:24;;;;;;;2.80;0.90;;;;;;;;;;5054669;28;20031;-71
2021/08/26 09:09:04;;;;;;;5.15;1.27;;;;;;;;;;5059405;28;20039;-72
2021/08/26 09:11:29;;;;;;;5.35;1.15;;;;;;;;;;5057183;28;20029;-66
2021/08/26 09:13:54;;;;;;;3.95;1.15;;;;;;;;;;5054707;28;20036;-68
2021/08/26 09:16:38;;;;;;;3.25;1.00;;;;;;;;;;5059583;28;20070;-70
2021/08/26 09:19:24;;;;;;;4.28;1.13;;;;;;;;;;5058592;28;20103;-68
2021/08/26 09:21:51;;;;;;;6.68;1.48;;;;;;;;;;5056083;28;20111;-67
2021/08/26 09:24:17;;;;;;;9.32;1.20;;;;;;;;;;5055533;28;20040;-70
2021/08/26 09:26:47;;;;;;;9.48;1.33;;;;;;;;;;5055310;28;20347;-71
2021/08/26 09:29:14;;;;;;;3.65;1.00;;;;;;;;;;5056781;28;20035;-71
2021/08/26 09:31:39;;;;;;;5.33;1.10;;;;;;;;;;5055722;28;20219;-71
2021/08/26 09:34:17;;;;;;;4.97;1.02;;;;;;;;;;5058359;28;20313;-68
2021/08/26 09:36:46;;;;;;;3.88;1.20;;;;;;;;;;5058692;28;20024;-72
2021/08/26 09:39:16;;;;;;;2.47;0.82;;;;;;;;;;5057036;28;20031;-70
2021/08/26 09:41:44;;;;;;;3.88;1.10;;;;;;;;;;5058554;28;20398;-69
2021/08/26 09:44:21;;;;;;;4.35;1.33;;;;;;;;;;5059102;28;20032;-67
2021/08/26 09:46:50;;;;;;;3.88;0.90;;;;;;;;;;5057580;28;20608;-69
2021/08/26 09:49:20;;;;;;;4.43;1.33;;;;;;;;;;5054130;28;20056;-71
2021/08/26 09:52:07;;;;;;;4.00;0.95;;;;;;;;;;5054170;28;20028;-71
2021/08/26 09:54:35;;;;;;;3.75;1.17;;;;;;;;;;5055170;28;20085;-71
2021/08/26 09:57:01;;;;;;;4.45;0.90;;;;;;;;;;5053234;28;20106;-68
2021/08/26 09:59:43;;;;;;;5.67;1.20;;;;;;;;;;5055911;28;20025;-68
2021/08/26 10:02:10;;;;;;;2.78;1.00;;;;;;;;;;5054908;28;20033;-67
2021/08/26 10:04:37;;;;;;;3.25;1.25;;;;;;;;;;5054849;28;20091;-68
2021/08/26 10:07:02;;;;;;;5.60;1.30;;;;;;;;;;5051889;28;20040;-70
2021/08/26 10:09:28;;;;;;;7.32;1.38;;;;;;;;;;5053818;28;20486;-69
2021/08/26 10:11:53;;;;;;;3.10;1.50;;;;;;;;;;5056081;28;20025;-70
2021/08/26 10:14:20;;;;;;;4.80;1.50;;;;;;;;;;5055789;28;20597;-71
2021/08/26 10:16:46;;;;;;;4.07;1.38;;;;;;;;;;5055710;28;20028;-72
2021/08/26 10:19:15;;;;;;;3.30;1.17;;;;;;;;;;5054364;28;20543;-70
2021/08/26 10:21:42;;;;;;;4.60;1.23;;;;;;;;;;5058070;28;20431;-68
2021/08/26 10:24:08;;;;;;;4.60;1.33;;;;;;;;;;5052707;28;20071;-70
2021/08/26 10:26:33;;;;;;;5.93;1.40;;;;;;;;;;5052620;28;20025;-71
2021/08/26 10:29:01;;;;;;;4.03;1.50;;;;;;;;;;5056100;28;20024;-69
2021/08/26 10:31:27;;;;;;;3.08;1.40;;;;;;;;;;5056330;28;20082;-72
2021/08/26 10:34:07;;;;;;;4.80;1.40;;;;;;;;;;5052877;28;20044;-67
2021/08/26 10:37:02;;;;;;;6.82;1.80;;;;;;;;;;5055814;28;20017;-71
2021/08/26 10:39:39;;;;;;;4.20;1.58;;;;;;;;;;5041561;28;20432;-72
2021/08/26 10:42:17;;;;;;;3.90;1.80;;;;;;;;;;5059423;28;20546;-68
2021/08/26 10:45:00;;;;;;;5.53;1.95;;;;;;;;;;5055412;28;20032;-70
2021/08/26 10:47:49;;;;;;;7.70;3.08;;;;;;;;;;5054725;28;20025;-71
2021/08/26 10:50:36;;;;;;;8.20;3.17;;;;;;;;;;5047944;28;20124;-67
2021/08/26 10:53:29;;;;;;;6.72;3.08;;;;;;;;;;5054716;28;20031;-67
2021/08/26 10:55:58;;;;;;;6.63;3.22;;;;;;;;;;5043578;28;20070;-67
2021/08/26 10:58:23;;;;;;;9.05;3.45;;;;;;;;;;5055103;28;20028;-70
2021/08/26 11:00:53;;;;;;;7.53;3.58;;;;;;;;;;5053280;28;20032;-70
2021/08/26 11:03:49;;;;;;;7.65;2.40;;;;;;;;;;5057024;28;20024;-69
2021/08/26 11:06:17;;;;;;;7.32;2.83;;;;;;;;;;5041354;28;20355;-68
2021/08/26 11:08:52;;;;;;;9.68;3.30;;;;;;;;;;5056889;28;20028;-71
2021/08/26 11:11:32;;;;;;;10.30;3.58;;;;;;;;;;5058299;28;20117;-70
2021/08/26 11:14:03;;;;;;;6.22;3.17;;;;;;;;;;5058863;28;20259;-67
2021/08/26 11:16:28;;;;;;;9.93;3.40;;;;;;;;;;5058662;28;20036;-70
2021/08/26 11:18:59;;;;;;;6.85;3.13;;;;;;;;;;5056145;28;20537;-72
2021/08/26 11:21:43;;;;;;;8.63;2.85;;;;;;;;;;5057023;28;20059;-71
2021/08/26 11:24:12;;;;;;;7.47;3.45;;;;;;;;;;5058877;28;20075;-71
2021/08/26 11:26:51;;;;;;;8.02;2.63;;;;;;;;;;5060163;28;20369;-70
2021/08/26 11:29:22;;;;;;;7.78;3.38;;;;;;;;;;5057129;28;20411;-72
2021/08/26 11:31:54;;;;;;;7.07;3.25;;;;;;;;;;5058876;28;20055;-69
2021/08/26 11:34:20;;;;;;;9.15;3.70;;;;;;;;;;5058360;28;20143;-71
2021/08/26 11:36:55;;;;;;;8.52;4.00;;;;;;;;;;5057479;28;20441;-71
2021/08/26 11:39:20;;;;;;;9.80;4.18;;;;;;;;;;5061225;28;20067;-71
2021/08/26 11:41:48;;;;;;;8.52;4.70;;;;;;;;;;5059521;28;20139;-72
2021/08/26 11:44:15;;;;;;;9.68;4.47;;;;;;;;;;5056830;28;20025;-70
2021/08/26 11:46:40;;;;;;;9.57;3.93;;;;;;;;;;5055341;28;20033;-70
2021/08/26 11:49:06;;;;;;;9.02;4.63;;;;;;;;;;5059503;28;20031;-70
2021/08/26 11:51:31;;;;;;;8.05;4.55;;;;;;;;;;5055854;28;20128;-72
2021/08/26 11:54:34;;;;;;;9.30;4.70;;;;;;;;;;5058974;28;20028;-72
2021/08/26 11:56:59;;;;;;;8.07;4.30;;;;;;;;;;5020261;28;20040;-73
2021/08/26 11:59:29;;;;;;;9.05;4.63;;;;;;;;;;5056587;28;20031;-71
2021/08/26 12:02:13;;;;;;;7.70;4.55;;;;;;;;;;5056561;28;20043;-70
2021/08/26 12:04:38;;;;;;;10.43;4.80;;;;;;;;;;5053362;28;20107;-68
2021/08/26 12:07:03;;;;;;;9.93;4.70;;;;;;;;;;5052970;28;20033;-69
2021/08/26 12:09:29;;;;;;;7.88;4.30;;;;;;;;;;5054258;28;20032;-68
2021/08/26 12:11:54;;;;;;;7.40;5.07;;;;;;;;;;5054753;28;20033;-71
2021/08/26 12:14:21;;;;;;;10.25;5.00;;;;;;;;;;5056209;28;20021;-70
2021/08/26 12:16:46;;;;;;;6.53;4.93;;;;;;;;;;5058339;28;20033;-70
2021/08/26 12:19:14;;;;;;;7.15;4.07;;;;;;;;;;5059305;28;20513;-71
2021/08/26 12:21:40;;;;;;;7.30;4.45;;;;;;;;;;5059966;28;20013;-68
2021/08/26 12:24:05;;;;;;;6.80;4.45;;;;;;;;;;5058104;28;20024;-70
2021/08/26 12:26:37;;;;;;;7.30;5.30;;;;;;;;;;5055972;28;20024;-67
2021/08/26 12:29:02;;;;;;;5.93;4.07;;;;;;;;;;5056873;28;20067;-71
2021/08/26 12:31:30;;;;;;;5.68;3.83;;;;;;;;;;5056934;28;20769;-73
2021/08/26 12:34:09;;;;;;;8.13;4.40;;;;;;;;;;5058630;28;20093;-68
2021/08/26 12:36:43;;;;;;;5.88;4.03;;;;;;;;;;5057675;28;20403;-70
2021/08/26 12:39:20;;;;;;;6.15;3.88;;;;;;;;;;5057605;28;20416;-72
2021/08/26 12:42:05;;;;;;;6.65;4.65;;;;;;;;;;5056953;28;20067;-69
2021/08/26 12:44:30;;;;;;;7.40;5.03;;;;;;;;;;5057333;28;20064;-67
2021/08/26 12:46:56;;;;;;;6.90;4.78;;;;;;;;;;5056699;28;20487;-70
2021/08/26 12:49:22;;;;;;;10.63;5.03;;;;;;;;;;5057136;28;20067;-72
2021/08/26 12:52:01;;;;;;;5.70;4.47;;;;;;;;;;5059274;28;20072;-68
2021/08/26 12:54:26;;;;;;;7.40;4.20;;;;;;;;;;5056936;28;20461;-68
2021/08/26 12:56:56;;;;;;;7.15;4.22;;;;;;;;;;5055350;28;20040;-70
2021/08/26 12:59:37;;;;;;;6.10;3.90;;;;;;;;;;5059281;28;20154;-69
2021/08/26 13:02:08;;;;;;;6.95;3.70;;;;;;;;;;5056825;28;20051;-70
2021/08/26 13:04:34;;;;;;;4.88;3.22;;;;;;;;;;5057535;28;20048;-69
2021/08/26 13:06:59;;;;;;;6.07;3.10;;;;;;;;;;5058240;28;20059;-72
2021/08/26 13:09:34;;;;;;;7.05;3.03;;;;;;;;;;5057635;28;20503;-70
2021/08/26 13:11:59;;;;;;;5.25;3.13;;;;;;;;;;5055091;28;20725;-71
2021/08/26 13:14:38;;;;;;;5.07;2.42;;;;;;;;;;5056962;28;20027;-73
2021/08/26 13:17:11;;;;;;;5.05;2.65;;;;;;;;;;5056409;28;20103;-74
2021/08/26 13:19:37;;;;;;;5.03;2.83;;;;;;;;;;5056704;28;20395;-72
2021/08/26 13:22:14;;;;;;;3.30;2.63;;;;;;;;;;5054844;28;20017;-69
2021/08/26 13:24:40;;;;;;;4.15;2.95;;;;;;;;;;5056006;28;20036;-71
2021/08/26 13:27:05;;;;;;;5.00;2.78;;;;;;;;;;5055616;28;20020;-71
2021/08/26 13:29:30;;;;;;;5.20;3.03;;;;;;;;;;5055992;28;20409;-73
2021/08/26 13:31:56;;;;;;;5.95;3.08;;;;;;;;;;5053188;28;20024;-74
2021/08/26 13:34:21;;;;;;;5.22;3.20;;;;;;;;;;5054280;28;20052;-70
2021/08/26 13:36:46;;;;;;;6.15;3.42;;;;;;;;;;5055276;28;20087;-71
2021/08/26 13:39:12;;;;;;;5.05;3.15;;;;;;;;;;5059906;28;20025;-70
2021/08/26 13:41:37;;;;;;;6.50;3.55;;;;;;;;;;5056202;28;20060;-67
2021/08/26 13:44:02;;;;;;;7.07;3.47;;;;;;;;;;5057157;28;20025;-68
2021/08/26 13:46:28;;;;;;;10.45;3.50;;;;;;;;;;5058637;28;20124;-72
2021/08/26 13:48:53;;;;;;;6.97;2.88;;;;;;;;;;5056647;28;20070;-71
2021/08/26 13:51:18;;;;;;;5.57;2.85;;;;;;;;;;5054862;28;20383;-71
2021/08/26 13:53:46;;;;;;;6.38;2.90;;;;;;;;;;5052547;28;20048;-70
2021/08/26 13:56:13;;;;;;;4.93;2.47;;;;;;;;;;5053859;28;20016;-72
2021/08/26 13:58:39;;;;;;;4.13;2.30;;;;;;;;;;5053730;28;20670;-71
2021/08/26 14:01:05;;;;;;;5.18;2.78;;;;;;;;;;5053171;28;20086;-68
2021/08/26 14:03:30;;;;;;;6.07;2.85;;;;;;;;;;5055441;28;20029;-69
2021/08/26 14:05:55;;;;;;;5.97;3.40;;;;;;;;;;5054754;28;20024;-72
2021/08/26 14:08:20;;;;;;;6.00;3.65;;;;;;;;;;5056533;28;20512;-71
2021/08/26 14:10:46;;;;;;;5.05;3.22;;;;;;;;;;5054980;28;20086;-73
2021/08/26 14:13:11;;;;;;;5.50;4.20;;;;;;;;;;5052567;28;20120;-72
2021/08/26 14:15:37;;;;;;;7.97;3.95;;;;;;;;;;5051989;28;20059;-70
2021/08/26 14:18:02;;;;;;;4.72;2.97;;;;;;;;;;5055596;28;20020;-69
2021/08/26 14:20:28;;;;;;;5.88;3.50;;;;;;;;;;5055316;28;20023;-71
2021/08/26 14:22:53;;;;;;;5.70;3.55;;;;;;;;;;5058098;28;20029;-70
2021/08/26 14:25:18;;;;;;;6.43;3.60;;;;;;;;;;5054503;28;20026;-72
2021/08/26 14:27:44;;;;;;;7.30;3.38;;;;;;;;;;5054469;28;20025;-67
2021/08/26 14:30:10;;;;;;;8.25;3.40;;;;;;;;;;5055339;28;20511;-69
2021/08/26 14:32:36;;;;;;;6.65;3.03;;;;;;;;;;5055222;28;20416;-72
2021/08/26 14:35:02;;;;;;;8.25;3.08;;;;;;;;;;5053425;28;20047;-68
2021/08/26 14:37:29;;;;;;;4.40;3.13;;;;;;;;;;5059060;28;20981;-69
2021/08/26 14:39:54;;;;;;;6.30;3.30;;;;;;;;;;5060224;28;20095;-67
2021/08/26 14:42:19;;;;;;;6.47;3.20;;;;;;;;;;5059900;28;20033;-69
2021/08/26 14:44:44;;;;;;;6.88;3.25;;;;;;;;;;5057765;28;20470;-73
2021/08/26 14:47:11;;;;;;;8.45;3.50;;;;;;;;;;5059544;28;20526;-74